sensor_id;sensor_type;location;lat;lon;timestamp;temperature;humidity
53268;DHT22;39156;51.176;6.738;2023-10-09T00:00:10;14.30;85.40
53268;DHT22;39156;51.176;6.738;2023-10-09T00:03:01;14.30;85.30
53268;DHT22;39156;51.176;6.738;2023-10-09T00:05:32;14.30;85.40
53268;DHT22;39156;51.176;6.738;2023-10-09T00:08:17;14.30;85.40
53268;DHT22;39156;51.176;6.738;2023-10-09T00:10:51;14.30;85.60
53268;DHT22;39156;51.176;6.738;2023-10-09T00:13:29;14.30;85.60
53268;DHT22;39156;51.176;6.738;2023-10-09T00:16:03;14.30;85.80
53268;DHT22;39156;51.176;6.738;2023-10-09T00:18:39;14.30;85.40
53268;DHT22;39156;51.176;6.738;2023-10-09T00:21:04;14.20;85.40
53268;DHT22;39156;51.176;6.738;2023-10-09T00:23:38;14.20;85.50
53268;DHT22;39156;51.176;6.738;2023-10-09T00:26:05;14.20;85.40
53268;DHT22;39156;51.176;6.738;2023-10-09T00:28:38;14.20;85.30
53268;DHT22;39156;51.176;6.738;2023-10-09T00:31:13;14.20;85.30
53268;DHT22;39156;51.176;6.738;2023-10-09T00:33:51;14.20;85.00
53268;DHT22;39156;51.176;6.738;2023-10-09T00:36:17;14.00;84.90
53268;DHT22;39156;51.176;6.738;2023-10-09T00:38:53;14.10;84.60
53268;DHT22;39156;51.176;6.738;2023-10-09T00:41:19;14.10;84.80
53268;DHT22;39156;51.176;6.738;2023-10-09T00:43:50;14.00;85.00
53268;DHT22;39156;51.176;6.738;2023-10-09T00:46:18;14.00;85.20
53268;DHT22;39156;51.176;6.738;2023-10-09T00:48:49;14.00;85.40
53268;DHT22;39156;51.176;6.738;2023-10-09T00:51:17;14.00;85.70
53268;DHT22;39156;51.176;6.738;2023-10-09T00:54:04;14.00;85.60
53268;DHT22;39156;51.176;6.738;2023-10-09T00:56:40;14.00;86.20
53268;DHT22;39156;51.176;6.738;2023-10-09T00:59:09;14.00;85.80
53268;DHT22;39156;51.176;6.738;2023-10-09T01:01:40;14.00;85.80
53268;DHT22;39156;51.176;6.738;2023-10-09T01:04:11;13.90;85.80
53268;DHT22;39156;51.176;6.738;2023-10-09T01:06:45;14.00;85.80
53268;DHT22;39156;51.176;6.738;2023-10-09T01:09:30;13.90;85.90
53268;DHT22;39156;51.176;6.738;2023-10-09T01:12:02;14.00;85.70
53268;DHT22;39156;51.176;6.738;2023-10-09T01:14:28;14.10;85.90
53268;DHT22;39156;51.176;6.738;2023-10-09T01:16:54;14.00;85.90
53268;DHT22;39156;51.176;6.738;2023-10-09T01:19:20;14.10;86.10
53268;DHT22;39156;51.176;6.738;2023-10-09T01:21:56;14.00;86.00
53268;DHT22;39156;51.176;6.738;2023-10-09T01:24:30;14.10;86.10
53268;DHT22;39156;51.176;6.738;2023-10-09T01:27:01;14.10;86.10
53268;DHT22;39156;51.176;6.738;2023-10-09T01:29:30;14.10;86.10
53268;DHT22;39156;51.176;6.738;2023-10-09T01:31:57;14.10;86.10
53268;DHT22;39156;51.176;6.738;2023-10-09T01:34:33;14.20;86.00
53268;DHT22;39156;51.176;6.738;2023-10-09T01:37:14;14.10;85.90
53268;DHT22;39156;51.176;6.738;2023-10-09T01:40:02;14.20;85.90
53268;DHT22;39156;51.176;6.738;2023-10-09T01:42:46;14.20;86.30
53268;DHT22;39156;51.176;6.738;2023-10-09T01:45:12;14.20;85.60
53268;DHT22;39156;51.176;6.738;2023-10-09T01:47:44;14.20;85.70
53268;DHT22;39156;51.176;6.738;2023-10-09T01:50:22;14.20;85.70
53268;DHT22;39156;51.176;6.738;2023-10-09T01:52:56;14.20;85.80
53268;DHT22;39156;51.176;6.738;2023-10-09T01:55:22;14.30;85.50
53268;DHT22;39156;51.176;6.738;2023-10-09T01:57:55;14.30;85.50
53268;DHT22;39156;51.176;6.738;2023-10-09T02:00:23;14.30;85.60
53268;DHT22;39156;51.176;6.738;2023-10-09T02:02:53;14.20;85.60
53268;DHT22;39156;51.176;6.738;2023-10-09T02:05:19;14.20;85.50
53268;DHT22;39156;51.176;6.738;2023-10-09T02:07:45;14.20;85.50
53268;DHT22;39156;51.176;6.738;2023-10-09T02:10:21;14.20;85.40
53268;DHT22;39156;51.176;6.738;2023-10-09T02:12:56;14.30;85.60
53268;DHT22;39156;51.176;6.738;2023-10-09T02:15:29;14.30;85.50
53268;DHT22;39156;51.176;6.738;2023-10-09T02:18:17;14.30;85.50
53268;DHT22;39156;51.176;6.738;2023-10-09T02:23:30;14.30;85.30
53268;DHT22;39156;51.176;6.738;2023-10-09T02:26:13;14.20;85.10
53268;DHT22;39156;51.176;6.738;2023-10-09T02:28:45;14.30;85.00
53268;DHT22;39156;51.176;6.738;2023-10-09T02:31:18;14.40;85.30
53268;DHT22;39156;51.176;6.738;2023-10-09T02:33:47;14.30;85.30
53268;DHT22;39156;51.176;6.738;2023-10-09T02:36:16;14.30;85.30
53268;DHT22;39156;51.176;6.738;2023-10-09T02:38:41;14.30;85.20
53268;DHT22;39156;51.176;6.738;2023-10-09T02:41:08;14.30;85.20
53268;DHT22;39156;51.176;6.738;2023-10-09T02:43:37;14.20;85.30
53268;DHT22;39156;51.176;6.738;2023-10-09T02:46:21;14.30;85.30
53268;DHT22;39156;51.176;6.738;2023-10-09T02:48:55;14.20;85.10
53268;DHT22;39156;51.176;6.738;2023-10-09T02:51:26;14.20;85.40
53268;DHT22;39156;51.176;6.738;2023-10-09T02:53:56;14.20;85.70
53268;DHT22;39156;51.176;6.738;2023-10-09T02:56:23;14.20;85.70
53268;DHT22;39156;51.176;6.738;2023-10-09T02:58:53;14.20;85.70
53268;DHT22;39156;51.176;6.738;2023-10-09T03:01:19;14.30;85.90
53268;DHT22;39156;51.176;6.738;2023-10-09T03:03:45;14.20;85.20
53268;DHT22;39156;51.176;6.738;2023-10-09T03:06:13;14.30;85.20
53268;DHT22;39156;51.176;6.738;2023-10-09T03:08:39;14.10;85.30
53268;DHT22;39156;51.176;6.738;2023-10-09T03:11:07;14.20;85.40
53268;DHT22;39156;51.176;6.738;2023-10-09T03:13:41;14.20;85.50
53268;DHT22;39156;51.176;6.738;2023-10-09T03:16:09;14.20;85.60
53268;DHT22;39156;51.176;6.738;2023-10-09T03:18:53;14.20;85.60
53268;DHT22;39156;51.176;6.738;2023-10-09T03:21:21;14.10;85.70
53268;DHT22;39156;51.176;6.738;2023-10-09T03:23:48;14.10;85.80
53268;DHT22;39156;51.176;6.738;2023-10-09T03:26:20;14.10;85.80
53268;DHT22;39156;51.176;6.738;2023-10-09T03:28:47;14.10;85.90
53268;DHT22;39156;51.176;6.738;2023-10-09T03:31:13;14.20;86.00
53268;DHT22;39156;51.176;6.738;2023-10-09T03:33:40;14.20;86.10
53268;DHT22;39156;51.176;6.738;2023-10-09T03:36:07;14.20;86.10
53268;DHT22;39156;51.176;6.738;2023-10-09T03:38:38;14.20;86.10
53268;DHT22;39156;51.176;6.738;2023-10-09T03:41:05;14.20;86.20
53268;DHT22;39156;51.176;6.738;2023-10-09T03:43:35;14.20;86.10
53268;DHT22;39156;51.176;6.738;2023-10-09T03:46:05;14.20;86.10
53268;DHT22;39156;51.176;6.738;2023-10-09T03:48:31;14.20;86.10
53268;DHT22;39156;51.176;6.738;2023-10-09T03:51:01;14.30;86.10
53268;DHT22;39156;51.176;6.738;2023-10-09T03:53:38;14.20;86.10
53268;DHT22;39156;51.176;6.738;2023-10-09T03:56:08;14.30;86.80
53268;DHT22;39156;51.176;6.738;2023-10-09T03:58:42;14.30;86.20
53268;DHT22;39156;51.176;6.738;2023-10-09T04:01:16;14.40;86.30
53268;DHT22;39156;51.176;6.738;2023-10-09T04:04:02;14.40;86.30
53268;DHT22;39156;51.176;6.738;2023-10-09T04:06:30;14.40;86.20
53268;DHT22;39156;51.176;6.738;2023-10-09T04:09:08;14.40;86.20
53268;DHT22;39156;51.176;6.738;2023-10-09T04:11:47;14.40;86.30
53268;DHT22;39156;51.176;6.738;2023-10-09T04:14:25;14.40;86.20
53268;DHT22;39156;51.176;6.738;2023-10-09T04:16:57;14.50;86.10
53268;DHT22;39156;51.176;6.738;2023-10-09T04:19:52;14.50;86.10
53268;DHT22;39156;51.176;6.738;2023-10-09T04:22:37;14.50;86.10
53268;DHT22;39156;51.176;6.738;2023-10-09T04:25:19;14.60;86.00
53268;DHT22;39156;51.176;6.738;2023-10-09T04:27:59;14.50;86.10
53268;DHT22;39156;51.176;6.738;2023-10-09T04:30:37;14.60;86.00
53268;DHT22;39156;51.176;6.738;2023-10-09T04:33:12;14.50;86.50
53268;DHT22;39156;51.176;6.738;2023-10-09T04:36:04;14.50;85.90
53268;DHT22;39156;51.176;6.738;2023-10-09T04:38:48;14.60;86.10
53268;DHT22;39156;51.176;6.738;2023-10-09T04:41:24;14.60;86.00
53268;DHT22;39156;51.176;6.738;2023-10-09T04:43:54;14.60;86.00
53268;DHT22;39156;51.176;6.738;2023-10-09T04:46:40;14.60;86.00
53268;DHT22;39156;51.176;6.738;2023-10-09T04:49:28;14.60;86.10
53268;DHT22;39156;51.176;6.738;2023-10-09T04:51:54;14.90;86.20
53268;DHT22;39156;51.176;6.738;2023-10-09T04:54:43;14.70;86.20
53268;DHT22;39156;51.176;6.738;2023-10-09T04:57:27;14.70;86.10
53268;DHT22;39156;51.176;6.738;2023-10-09T04:59:54;14.70;86.00
53268;DHT22;39156;51.176;6.738;2023-10-09T05:02:24;14.70;86.00
53268;DHT22;39156;51.176;6.738;2023-10-09T05:04:50;14.70;86.00
53268;DHT22;39156;51.176;6.738;2023-10-09T05:07:38;14.70;85.90
53268;DHT22;39156;51.176;6.738;2023-10-09T05:10:33;14.80;86.00
53268;DHT22;39156;51.176;6.738;2023-10-09T05:12:59;14.80;85.90
53268;DHT22;39156;51.176;6.738;2023-10-09T05:15:25;14.80;85.80
53268;DHT22;39156;51.176;6.738;2023-10-09T05:17:56;14.90;85.90
53268;DHT22;39156;51.176;6.738;2023-10-09T05:20:23;14.80;85.80
53268;DHT22;39156;51.176;6.738;2023-10-09T05:22:52;14.90;85.80
53268;DHT22;39156;51.176;6.738;2023-10-09T05:25:27;14.90;85.80
53268;DHT22;39156;51.176;6.738;2023-10-09T05:28:11;14.80;85.70
53268;DHT22;39156;51.176;6.738;2023-10-09T05:30:51;14.90;85.60
53268;DHT22;39156;51.176;6.738;2023-10-09T05:33:29;14.90;85.50
53268;DHT22;39156;51.176;6.738;2023-10-09T05:35:55;15.00;85.60
53268;DHT22;39156;51.176;6.738;2023-10-09T05:38:39;14.90;85.50
53268;DHT22;39156;51.176;6.738;2023-10-09T05:41:12;14.90;85.40
53268;DHT22;39156;51.176;6.738;2023-10-09T05:43:57;15.00;85.40
53268;DHT22;39156;51.176;6.738;2023-10-09T05:46:41;15.00;85.30
53268;DHT22;39156;51.176;6.738;2023-10-09T05:49:26;14.90;85.20
53268;DHT22;39156;51.176;6.738;2023-10-09T05:52:11;15.00;85.20
53268;DHT22;39156;51.176;6.738;2023-10-09T05:54:58;15.00;85.10
53268;DHT22;39156;51.176;6.738;2023-10-09T05:57:36;15.10;85.20
53268;DHT22;39156;51.176;6.738;2023-10-09T06:00:37;15.10;85.10
53268;DHT22;39156;51.176;6.738;2023-10-09T06:03:21;15.10;85.10
53268;DHT22;39156;51.176;6.738;2023-10-09T06:06:13;15.10;85.00
53268;DHT22;39156;51.176;6.738;2023-10-09T06:09:02;15.20;85.00
53268;DHT22;39156;51.176;6.738;2023-10-09T06:11:48;15.20;84.90
53268;DHT22;39156;51.176;6.738;2023-10-09T06:14:19;15.10;84.60
53268;DHT22;39156;51.176;6.738;2023-10-09T06:17:08;15.10;84.60
53268;DHT22;39156;51.176;6.738;2023-10-09T06:19:37;15.20;84.70
53268;DHT22;39156;51.176;6.738;2023-10-09T06:22:09;15.20;84.50
53268;DHT22;39156;51.176;6.738;2023-10-09T06:24:55;15.20;84.50
53268;DHT22;39156;51.176;6.738;2023-10-09T06:27:23;15.20;84.30
53268;DHT22;39156;51.176;6.738;2023-10-09T06:30:12;15.30;84.40
53268;DHT22;39156;51.176;6.738;2023-10-09T06:32:38;15.30;84.40
53268;DHT22;39156;51.176;6.738;2023-10-09T06:35:14;15.40;84.50
53268;DHT22;39156;51.176;6.738;2023-10-09T06:37:48;15.40;84.40
53268;DHT22;39156;51.176;6.738;2023-10-09T06:40:48;15.40;84.40
53268;DHT22;39156;51.176;6.738;2023-10-09T06:43:20;15.40;84.40
53268;DHT22;39156;51.176;6.738;2023-10-09T06:45:47;15.50;84.40
53268;DHT22;39156;51.176;6.738;2023-10-09T06:48:32;15.50;84.20
53268;DHT22;39156;51.176;6.738;2023-10-09T06:51:11;15.60;84.30
53268;DHT22;39156;51.176;6.738;2023-10-09T06:53:53;15.60;83.90
53268;DHT22;39156;51.176;6.738;2023-10-09T06:56:26;15.60;84.10
53268;DHT22;39156;51.176;6.738;2023-10-09T06:59:01;15.70;83.80
53268;DHT22;39156;51.176;6.738;2023-10-09T07:01:54;15.70;83.80
53268;DHT22;39156;51.176;6.738;2023-10-09T07:04:35;15.80;83.80
53268;DHT22;39156;51.176;6.738;2023-10-09T07:07:01;15.80;83.60
53268;DHT22;39156;51.176;6.738;2023-10-09T07:09:27;15.80;83.60
53268;DHT22;39156;51.176;6.738;2023-10-09T07:12:11;15.80;83.60
53268;DHT22;39156;51.176;6.738;2023-10-09T07:14:46;15.80;83.50
53268;DHT22;39156;51.176;6.738;2023-10-09T07:17:12;15.90;83.40
53268;DHT22;39156;51.176;6.738;2023-10-09T07:19:56;15.90;83.50
53268;DHT22;39156;51.176;6.738;2023-10-09T07:22:35;16.00;83.60
53268;DHT22;39156;51.176;6.738;2023-10-09T07:25:22;16.10;83.70
53268;DHT22;39156;51.176;6.738;2023-10-09T07:28:10;16.10;83.70
53268;DHT22;39156;51.176;6.738;2023-10-09T07:31:02;16.30;83.40
53268;DHT22;39156;51.176;6.738;2023-10-09T07:33:34;16.40;83.10
53268;DHT22;39156;51.176;6.738;2023-10-09T07:36:18;16.40;83.00
53268;DHT22;39156;51.176;6.738;2023-10-09T07:39:00;16.60;82.90
53268;DHT22;39156;51.176;6.738;2023-10-09T07:41:38;16.70;82.50
53268;DHT22;39156;51.176;6.738;2023-10-09T07:44:10;16.70;82.20
53268;DHT22;39156;51.176;6.738;2023-10-09T07:46:59;16.90;81.90
53268;DHT22;39156;51.176;6.738;2023-10-09T07:49:44;16.90;81.60
53268;DHT22;39156;51.176;6.738;2023-10-09T07:52:19;16.90;81.30
53268;DHT22;39156;51.176;6.738;2023-10-09T07:54:47;17.00;81.30
53268;DHT22;39156;51.176;6.738;2023-10-09T07:57:19;17.00;81.00
53268;DHT22;39156;51.176;6.738;2023-10-09T07:59:51;17.00;80.80
53268;DHT22;39156;51.176;6.738;2023-10-09T08:02:26;17.00;80.60
53268;DHT22;39156;51.176;6.738;2023-10-09T08:05:00;17.00;80.40
53268;DHT22;39156;51.176;6.738;2023-10-09T08:07:29;17.00;80.40
53268;DHT22;39156;51.176;6.738;2023-10-09T08:10:05;17.10;80.60
53268;DHT22;39156;51.176;6.738;2023-10-09T08:12:43;17.10;80.30
53268;DHT22;39156;51.176;6.738;2023-10-09T08:15:15;17.10;80.50
53268;DHT22;39156;51.176;6.738;2023-10-09T08:17:45;17.10;80.30
53268;DHT22;39156;51.176;6.738;2023-10-09T08:20:16;17.10;80.30
53268;DHT22;39156;51.176;6.738;2023-10-09T08:22:43;17.20;80.40
53268;DHT22;39156;51.176;6.738;2023-10-09T08:25:12;17.20;80.20
53268;DHT22;39156;51.176;6.738;2023-10-09T08:27:58;17.20;80.30
53268;DHT22;39156;51.176;6.738;2023-10-09T08:30:48;17.20;80.50
53268;DHT22;39156;51.176;6.738;2023-10-09T08:33:29;17.20;80.30
53268;DHT22;39156;51.176;6.738;2023-10-09T08:36:11;17.30;80.50
53268;DHT22;39156;51.176;6.738;2023-10-09T08:38:40;17.30;80.50
53268;DHT22;39156;51.176;6.738;2023-10-09T08:41:09;17.40;80.30
53268;DHT22;39156;51.176;6.738;2023-10-09T08:44:01;17.50;80.20
53268;DHT22;39156;51.176;6.738;2023-10-09T08:46:29;17.60;79.90
53268;DHT22;39156;51.176;6.738;2023-10-09T08:48:56;17.70;79.80
53268;DHT22;39156;51.176;6.738;2023-10-09T08:51:30;17.70;79.60
53268;DHT22;39156;51.176;6.738;2023-10-09T08:53:56;17.80;79.10
53268;DHT22;39156;51.176;6.738;2023-10-09T08:56:22;17.80;78.90
53268;DHT22;39156;51.176;6.738;2023-10-09T08:58:50;17.90;78.80
53268;DHT22;39156;51.176;6.738;2023-10-09T09:01:17;17.90;78.80
53268;DHT22;39156;51.176;6.738;2023-10-09T09:03:47;17.90;78.60
53268;DHT22;39156;51.176;6.738;2023-10-09T09:06:15;18.00;78.50
53268;DHT22;39156;51.176;6.738;2023-10-09T09:08:44;18.00;78.40
53268;DHT22;39156;51.176;6.738;2023-10-09T09:14:00;18.00;78.20
53268;DHT22;39156;51.176;6.738;2023-10-09T09:16:31;18.10;77.80
53268;DHT22;39156;51.176;6.738;2023-10-09T09:19:02;18.20;78.10
53268;DHT22;39156;51.176;6.738;2023-10-09T09:21:32;18.20;77.90
53268;DHT22;39156;51.176;6.738;2023-10-09T09:24:16;18.20;77.80
53268;DHT22;39156;51.176;6.738;2023-10-09T09:26:50;18.20;77.80
53268;DHT22;39156;51.176;6.738;2023-10-09T09:32:07;18.50;77.50
53268;DHT22;39156;51.176;6.738;2023-10-09T09:34:49;18.60;77.70
53268;DHT22;39156;51.176;6.738;2023-10-09T09:37:25;18.70;77.80
53268;DHT22;39156;51.176;6.738;2023-10-09T09:40:03;18.90;77.50
53268;DHT22;39156;51.176;6.738;2023-10-09T09:43:02;19.00;76.90
53268;DHT22;39156;51.176;6.738;2023-10-09T09:45:35;19.30;77.60
53268;DHT22;39156;51.176;6.738;2023-10-09T09:48:05;19.50;76.30
53268;DHT22;39156;51.176;6.738;2023-10-09T09:50:34;19.60;75.70
53268;DHT22;39156;51.176;6.738;2023-10-09T09:53:09;19.80;75.20
53268;DHT22;39156;51.176;6.738;2023-10-09T09:55:49;19.90;76.10
53268;DHT22;39156;51.176;6.738;2023-10-09T09:58:39;20.00;75.10
53268;DHT22;39156;51.176;6.738;2023-10-09T10:01:10;20.20;74.60
53268;DHT22;39156;51.176;6.738;2023-10-09T10:03:54;20.20;74.10
53268;DHT22;39156;51.176;6.738;2023-10-09T10:06:24;20.30;73.50
53268;DHT22;39156;51.176;6.738;2023-10-09T10:08:52;20.30;72.80
53268;DHT22;39156;51.176;6.738;2023-10-09T10:11:46;20.30;72.60
53268;DHT22;39156;51.176;6.738;2023-10-09T10:14:17;20.40;71.80
53268;DHT22;39156;51.176;6.738;2023-10-09T10:17:06;20.50;72.60
53268;DHT22;39156;51.176;6.738;2023-10-09T10:22:41;20.50;71.20
53268;DHT22;39156;51.176;6.738;2023-10-09T10:28:21;20.70;71.00
53268;DHT22;39156;51.176;6.738;2023-10-09T10:31:03;20.70;70.70
53268;DHT22;39156;51.176;6.738;2023-10-09T10:36:21;20.70;70.50
53268;DHT22;39156;51.176;6.738;2023-10-09T10:39:07;20.70;70.80
53268;DHT22;39156;51.176;6.738;2023-10-09T10:41:37;20.70;70.20
53268;DHT22;39156;51.176;6.738;2023-10-09T10:44:32;20.70;70.20
53268;DHT22;39156;51.176;6.738;2023-10-09T10:47:11;20.70;69.70
53268;DHT22;39156;51.176;6.738;2023-10-09T10:49:58;20.80;71.20
53268;DHT22;39156;51.176;6.738;2023-10-09T10:52:25;20.80;70.30
53268;DHT22;39156;51.176;6.738;2023-10-09T10:55:11;20.80;70.30
53268;DHT22;39156;51.176;6.738;2023-10-09T10:58:15;20.80;70.00
53268;DHT22;39156;51.176;6.738;2023-10-09T11:00:54;20.70;69.30
53268;DHT22;39156;51.176;6.738;2023-10-09T11:03:24;20.90;69.10
53268;DHT22;39156;51.176;6.738;2023-10-09T11:06:30;20.80;69.20
53268;DHT22;39156;51.176;6.738;2023-10-09T11:09:07;20.80;68.90
53268;DHT22;39156;51.176;6.738;2023-10-09T11:12:04;20.80;68.90
53268;DHT22;39156;51.176;6.738;2023-10-09T11:14:48;20.80;68.70
53268;DHT22;39156;51.176;6.738;2023-10-09T11:17:33;20.90;69.10
53268;DHT22;39156;51.176;6.738;2023-10-09T11:20:05;21.00;69.10
53268;DHT22;39156;51.176;6.738;2023-10-09T11:22:51;20.90;69.10
53268;DHT22;39156;51.176;6.738;2023-10-09T11:25:33;21.00;69.10
53268;DHT22;39156;51.176;6.738;2023-10-09T11:27:59;21.00;68.90
53268;DHT22;39156;51.176;6.738;2023-10-09T11:30:41;21.10;68.70
53268;DHT22;39156;51.176;6.738;2023-10-09T11:33:11;21.00;68.50
53268;DHT22;39156;51.176;6.738;2023-10-09T11:35:40;21.00;68.50
53268;DHT22;39156;51.176;6.738;2023-10-09T11:38:08;21.10;68.40
53268;DHT22;39156;51.176;6.738;2023-10-09T11:40:47;21.10;68.40
53268;DHT22;39156;51.176;6.738;2023-10-09T11:43:19;21.10;68.30
53268;DHT22;39156;51.176;6.738;2023-10-09T11:46:11;21.20;68.30
53268;DHT22;39156;51.176;6.738;2023-10-09T11:48:36;21.20;68.40
53268;DHT22;39156;51.176;6.738;2023-10-09T11:51:22;21.20;68.20
53268;DHT22;39156;51.176;6.738;2023-10-09T11:53:48;21.30;68.00
53268;DHT22;39156;51.176;6.738;2023-10-09T11:56:21;21.40;67.70
53268;DHT22;39156;51.176;6.738;2023-10-09T11:58:48;21.30;67.00
53268;DHT22;39156;51.176;6.738;2023-10-09T12:01:18;21.40;66.80
53268;DHT22;39156;51.176;6.738;2023-10-09T12:03:49;21.40;66.60
53268;DHT22;39156;51.176;6.738;2023-10-09T12:06:19;21.30;66.60
53268;DHT22;39156;51.176;6.738;2023-10-09T12:08:48;21.30;66.30
53268;DHT22;39156;51.176;6.738;2023-10-09T12:11:15;21.40;66.70
53268;DHT22;39156;51.176;6.738;2023-10-09T12:13:48;21.30;66.70
53268;DHT22;39156;51.176;6.738;2023-10-09T12:16:14;21.30;66.80
53268;DHT22;39156;51.176;6.738;2023-10-09T12:18:41;21.30;66.90
53268;DHT22;39156;51.176;6.738;2023-10-09T12:21:08;21.30;66.90
53268;DHT22;39156;51.176;6.738;2023-10-09T12:23:41;21.30;66.60
53268;DHT22;39156;51.176;6.738;2023-10-09T12:26:09;21.30;67.00
53268;DHT22;39156;51.176;6.738;2023-10-09T12:28:43;21.40;67.10
53268;DHT22;39156;51.176;6.738;2023-10-09T12:31:12;21.40;66.70
53268;DHT22;39156;51.176;6.738;2023-10-09T12:33:40;21.40;66.50
53268;DHT22;39156;51.176;6.738;2023-10-09T12:36:11;21.40;66.50
53268;DHT22;39156;51.176;6.738;2023-10-09T12:38:45;21.40;66.20
53268;DHT22;39156;51.176;6.738;2023-10-09T12:41:15;21.40;66.40
53268;DHT22;39156;51.176;6.738;2023-10-09T12:43:52;21.50;66.50
53268;DHT22;39156;51.176;6.738;2023-10-09T12:46:21;21.50;66.50
53268;DHT22;39156;51.176;6.738;2023-10-09T12:48:51;21.50;66.40
53268;DHT22;39156;51.176;6.738;2023-10-09T12:51:20;21.40;66.70
53268;DHT22;39156;51.176;6.738;2023-10-09T12:53:51;21.50;66.50
53268;DHT22;39156;51.176;6.738;2023-10-09T12:56:23;21.40;66.10
53268;DHT22;39156;51.176;6.738;2023-10-09T12:59:03;21.40;66.00
53268;DHT22;39156;51.176;6.738;2023-10-09T13:01:33;21.40;66.40
53268;DHT22;39156;51.176;6.738;2023-10-09T13:04:11;21.50;66.50
53268;DHT22;39156;51.176;6.738;2023-10-09T13:06:39;21.50;66.40
53268;DHT22;39156;51.176;6.738;2023-10-09T13:09:12;21.40;66.10
53268;DHT22;39156;51.176;6.738;2023-10-09T13:11:42;21.40;66.30
53268;DHT22;39156;51.176;6.738;2023-10-09T13:14:09;21.50;66.30
53268;DHT22;39156;51.176;6.738;2023-10-09T13:16:47;21.50;66.40
53268;DHT22;39156;51.176;6.738;2023-10-09T13:19:16;21.40;66.30
53268;DHT22;39156;51.176;6.738;2023-10-09T13:21:43;21.50;66.30
53268;DHT22;39156;51.176;6.738;2023-10-09T13:24:09;21.40;66.30
53268;DHT22;39156;51.176;6.738;2023-10-09T13:26:42;21.50;66.50
53268;DHT22;39156;51.176;6.738;2023-10-09T13:29:10;21.40;66.50
53268;DHT22;39156;51.176;6.738;2023-10-09T13:31:37;21.40;66.80
53268;DHT22;39156;51.176;6.738;2023-10-09T13:34:04;21.50;67.40
53268;DHT22;39156;51.176;6.738;2023-10-09T13:36:35;21.50;66.30
53268;DHT22;39156;51.176;6.738;2023-10-09T13:39:07;21.40;66.10
53268;DHT22;39156;51.176;6.738;2023-10-09T13:41:48;21.40;66.90
53268;DHT22;39156;51.176;6.738;2023-10-09T13:44:15;21.40;66.50
53268;DHT22;39156;51.176;6.738;2023-10-09T13:46:41;21.40;66.60
53268;DHT22;39156;51.176;6.738;2023-10-09T13:49:08;21.40;66.80
53268;DHT22;39156;51.176;6.738;2023-10-09T13:51:38;21.30;66.70
53268;DHT22;39156;51.176;6.738;2023-10-09T13:54:13;21.40;66.80
53268;DHT22;39156;51.176;6.738;2023-10-09T13:56:47;21.40;66.50
53268;DHT22;39156;51.176;6.738;2023-10-09T13:59:21;21.40;66.70
53268;DHT22;39156;51.176;6.738;2023-10-09T14:01:49;21.40;66.80
53268;DHT22;39156;51.176;6.738;2023-10-09T14:04:15;21.30;66.80
53268;DHT22;39156;51.176;6.738;2023-10-09T14:06:44;21.30;66.60
53268;DHT22;39156;51.176;6.738;2023-10-09T14:09:11;21.30;66.50
53268;DHT22;39156;51.176;6.738;2023-10-09T14:11:59;21.30;66.60
53268;DHT22;39156;51.176;6.738;2023-10-09T14:14:52;21.30;66.70
53268;DHT22;39156;51.176;6.738;2023-10-09T14:17:20;21.40;66.90
53268;DHT22;39156;51.176;6.738;2023-10-09T14:19:51;21.30;67.00
53268;DHT22;39156;51.176;6.738;2023-10-09T14:22:25;21.30;67.10
53268;DHT22;39156;51.176;6.738;2023-10-09T14:24:52;21.40;67.00
53268;DHT22;39156;51.176;6.738;2023-10-09T14:27:23;21.40;67.20
53268;DHT22;39156;51.176;6.738;2023-10-09T14:29:55;21.40;66.90
53268;DHT22;39156;51.176;6.738;2023-10-09T14:32:24;21.40;67.10
53268;DHT22;39156;51.176;6.738;2023-10-09T14:35:09;21.50;66.90
53268;DHT22;39156;51.176;6.738;2023-10-09T14:37:38;21.50;66.50
53268;DHT22;39156;51.176;6.738;2023-10-09T14:40:05;21.50;66.40
53268;DHT22;39156;51.176;6.738;2023-10-09T14:42:38;21.50;67.10
53268;DHT22;39156;51.176;6.738;2023-10-09T14:45:09;21.50;66.40
53268;DHT22;39156;51.176;6.738;2023-10-09T14:47:41;21.50;66.50
53268;DHT22;39156;51.176;6.738;2023-10-09T14:50:07;21.40;66.50
53268;DHT22;39156;51.176;6.738;2023-10-09T14:52:34;21.40;66.50
53268;DHT22;39156;51.176;6.738;2023-10-09T14:55:04;21.30;66.40
53268;DHT22;39156;51.176;6.738;2023-10-09T14:57:31;21.30;66.60
53268;DHT22;39156;51.176;6.738;2023-10-09T15:00:00;21.30;66.90
53268;DHT22;39156;51.176;6.738;2023-10-09T15:02:27;21.20;66.90
53268;DHT22;39156;51.176;6.738;2023-10-09T15:04:53;21.20;67.00
53268;DHT22;39156;51.176;6.738;2023-10-09T15:07:19;21.20;66.80
53268;DHT22;39156;51.176;6.738;2023-10-09T15:09:46;21.20;67.00
53268;DHT22;39156;51.176;6.738;2023-10-09T15:12:12;21.30;67.00
53268;DHT22;39156;51.176;6.738;2023-10-09T15:14:37;21.30;67.00
53268;DHT22;39156;51.176;6.738;2023-10-09T15:17:04;21.30;67.00
53268;DHT22;39156;51.176;6.738;2023-10-09T15:19:32;21.30;66.80
53268;DHT22;39156;51.176;6.738;2023-10-09T15:21:58;21.30;66.90
53268;DHT22;39156;51.176;6.738;2023-10-09T15:24:25;21.20;67.00
53268;DHT22;39156;51.176;6.738;2023-10-09T15:26:53;21.10;67.00
53268;DHT22;39156;51.176;6.738;2023-10-09T15:29:23;21.20;67.20
53268;DHT22;39156;51.176;6.738;2023-10-09T15:31:57;21.20;67.30
53268;DHT22;39156;51.176;6.738;2023-10-09T15:34:33;21.20;67.60
53268;DHT22;39156;51.176;6.738;2023-10-09T15:37:00;21.20;67.60
53268;DHT22;39156;51.176;6.738;2023-10-09T15:39:26;21.20;67.60
53268;DHT22;39156;51.176;6.738;2023-10-09T15:41:51;21.20;67.60
53268;DHT22;39156;51.176;6.738;2023-10-09T15:44:17;21.20;67.40
53268;DHT22;39156;51.176;6.738;2023-10-09T15:46:43;21.20;67.40
53268;DHT22;39156;51.176;6.738;2023-10-09T15:49:12;21.10;67.60
53268;DHT22;39156;51.176;6.738;2023-10-09T15:51:39;21.10;67.80
53268;DHT22;39156;51.176;6.738;2023-10-09T15:54:05;21.10;67.90
53268;DHT22;39156;51.176;6.738;2023-10-09T15:56:31;21.10;68.00
53268;DHT22;39156;51.176;6.738;2023-10-09T15:58:57;21.10;67.90
53268;DHT22;39156;51.176;6.738;2023-10-09T16:01:22;21.00;67.90
53268;DHT22;39156;51.176;6.738;2023-10-09T16:03:49;21.00;68.00
53268;DHT22;39156;51.176;6.738;2023-10-09T16:06:16;21.00;68.20
53268;DHT22;39156;51.176;6.738;2023-10-09T16:08:44;20.90;68.30
53268;DHT22;39156;51.176;6.738;2023-10-09T16:11:11;20.80;68.40
53268;DHT22;39156;51.176;6.738;2023-10-09T16:13:42;20.70;68.60
53268;DHT22;39156;51.176;6.738;2023-10-09T16:16:08;20.70;68.80
53268;DHT22;39156;51.176;6.738;2023-10-09T16:18:36;20.60;69.00
53268;DHT22;39156;51.176;6.738;2023-10-09T16:21:04;20.50;69.30
53268;DHT22;39156;51.176;6.738;2023-10-09T16:23:31;20.30;69.30
53268;DHT22;39156;51.176;6.738;2023-10-09T16:25:57;20.30;69.50
53268;DHT22;39156;51.176;6.738;2023-10-09T16:28:27;20.20;69.60